createdAt,value
2017-07-23T07:27:33.846Z,128
2017-07-23T07:28:35.217Z,136
2017-07-23T07:29:59.491Z,136
2017-07-23T07:30:19.992Z,132
2017-07-23T07:32:21.343Z,156
2017-07-23T07:34:45.507Z,188
2017-07-23T07:35:43.728Z,152
2017-07-23T07:40:45.032Z,156
2017-07-23T07:46:05.967Z,172
2017-07-23T07:51:07.282Z,184
2017-07-23T07:56:28.219Z,248
2017-07-23T08:01:29.531Z,248
2017-07-23T08:06:50.469Z,216
2017-07-23T08:11:51.785Z,228
2017-07-23T08:17:12.723Z,288
2017-07-23T08:22:14.037Z,328
2017-07-23T08:27:34.978Z,336
2017-07-23T08:32:36.299Z,312
2017-07-23T08:37:57.254Z,432
2017-07-23T08:42:58.571Z,432
2017-07-23T08:48:19.513Z,500
2017-07-23T08:53:20.829Z,540
2017-07-23T08:58:41.776Z,548
2017-07-23T09:03:43.099Z,488
2017-07-23T09:09:04.039Z,396
2017-07-23T09:14:05.358Z,488
2017-07-23T09:19:26.299Z,644
2017-07-23T09:24:27.619Z,672
2017-07-23T09:29:48.566Z,492
2017-07-23T09:34:49.883Z,336
2017-07-23T09:40:10.827Z,364
2017-07-23T09:45:12.143Z,380
2017-07-23T09:50:33.583Z,388
2017-07-23T09:55:34.905Z,508
2017-07-23T10:00:55.846Z,576
2017-07-23T10:05:57.165Z,712
2017-07-23T10:11:18.126Z,592
2017-07-23T10:16:19.448Z,272
2017-07-23T10:21:40.389Z,312
2017-07-23T10:26:41.709Z,488
2017-07-23T10:32:02.678Z,760
2017-07-23T10:37:03.997Z,744
2017-07-23T10:42:24.943Z,516
2017-07-23T10:47:26.387Z,488
2017-07-23T10:52:48.593Z,320
2017-07-23T10:57:51.259Z,708
2017-07-23T11:03:12.176Z,720
2017-07-23T11:08:14.261Z,860
2017-07-23T11:13:37.648Z,708
2017-07-23T11:18:39.069Z,840
2017-07-23T11:24:00.707Z,492
2017-07-23T11:29:02.038Z,428
2017-07-23T11:34:23.174Z,724
2017-07-23T11:39:24.655Z,624
2017-07-23T11:44:46.016Z,636
2017-07-23T11:49:47.341Z,884
2017-07-23T11:55:08.727Z,924
2017-07-23T12:00:10.069Z,860
2017-07-23T12:05:31.500Z,916
2017-07-23T12:10:32.827Z,980
2017-07-23T12:15:54.240Z,820
2017-07-23T12:20:55.573Z,996
2017-07-23T12:26:17.061Z,700
2017-07-23T12:31:18.366Z,1304
2017-07-23T12:36:39.334Z,732
2017-07-23T12:41:40.657Z,592
2017-07-23T12:47:01.608Z,1172
2017-07-23T12:52:02.932Z,1360
2017-07-23T12:57:24.950Z,1440
2017-07-23T13:02:26.278Z,1008
2017-07-23T13:07:47.248Z,1236
2017-07-23T13:12:48.574Z,668
2017-07-23T13:18:09.522Z,616
2017-07-23T13:23:10.848Z,476
2017-07-23T13:28:31.794Z,744
2017-07-23T13:33:33.119Z,816
2017-07-23T13:38:54.067Z,992
2017-07-23T13:43:55.403Z,640
2017-07-23T13:49:16.374Z,476
2017-07-23T13:54:17.699Z,464
2017-07-23T13:59:38.647Z,620
2017-07-23T14:04:39.976Z,868
2017-07-23T14:10:02.259Z,712
2017-07-23T14:15:03.583Z,648
2017-07-23T14:20:24.529Z,836
2017-07-23T14:25:25.854Z,760
2017-07-23T14:30:48.199Z,596
